createdAt,value
2023-11-18T09:07:01.460Z,12.61
2023-11-18T09:10:05.131Z,12.61
2023-11-18T09:13:08.062Z,14.58
2023-11-18T09:16:12.331Z,15.96
2023-11-18T09:19:15.724Z,15.40
2023-11-18T09:22:20.262Z,14.75
2023-11-18T09:25:23.465Z,16.32
2023-11-18T09:28:29.811Z,15.22
2023-11-18T09:31:34.764Z,16.92
2023-11-18T09:34:40.641Z,14.25
2023-11-18T09:37:43.714Z,13.88
2023-11-18T09:40:49.157Z,14.07
2023-11-18T09:43:55.563Z,12.05
2023-11-18T09:47:08.045Z,12.51
2023-11-18T09:50:15.188Z,11.11
2023-11-18T09:53:26.757Z,11.09
2023-11-18T09:56:47.050Z,11.19
2023-11-18T10:00:42.940Z,10.57
2023-11-18T10:03:47.357Z,11.61
2023-11-18T10:06:53.826Z,12.07
2023-11-18T10:10:00.067Z,11.54
2023-11-18T10:13:07.256Z,12.77
2023-11-18T10:16:10.416Z,14.12
2023-11-18T10:19:15.926Z,13.67
2023-11-18T10:22:27.484Z,14.23
2023-11-18T10:25:31.096Z,11.73
2023-11-18T10:28:39.270Z,12.41
2023-11-18T10:31:46.497Z,14.16
2023-11-18T10:34:52.317Z,11.55
2023-11-18T10:37:55.303Z,12.07
2023-11-18T10:41:02.362Z,11.21
2023-11-18T10:44:18.462Z,11.92
2023-11-18T10:47:21.806Z,12.01
2023-11-18T10:50:24.486Z,12.65
2023-11-18T10:53:29.173Z,11.30
2023-11-18T10:56:34.070Z,12.49
2023-11-18T11:00:14.367Z,14.33
2023-11-18T11:03:17.686Z,14.25
2023-11-18T11:06:24.754Z,13.42
2023-11-18T11:09:36.663Z,11.86
2023-11-18T11:12:53.177Z,13.30
2023-11-18T11:15:58.006Z,12.05
2023-11-18T11:19:10.135Z,11.89
2023-11-18T11:22:22.182Z,13.04
2023-11-18T11:25:56.654Z,13.02
2023-11-18T11:29:11.169Z,13.20
2023-11-18T11:32:32.763Z,13.09
2023-11-18T11:35:41.711Z,12.04
2023-11-18T11:38:47.983Z,12.28
2023-11-18T11:41:58.399Z,12.97
2023-11-18T11:45:03.208Z,12.82
2023-11-18T11:48:16.582Z,12.60
2023-11-18T11:51:44.876Z,13.32
2023-11-18T11:55:07.099Z,12.25
2023-11-18T11:58:32.326Z,13.26
2023-11-18T12:01:38.699Z,10.39
2023-11-18T12:04:43.112Z,11.60
2023-11-18T12:07:47.701Z,11.84
2023-11-18T12:10:55.784Z,11.69
2023-11-18T12:14:23.198Z,13.12
2023-11-18T12:17:33.139Z,12.97
2023-11-18T12:20:48.998Z,11.83
2023-11-18T12:24:20.261Z,13.00
2023-11-18T12:27:41.597Z,11.02
2023-11-18T12:30:59.230Z,10.59
2023-11-18T12:34:04.276Z,10.09
2023-11-18T12:38:04.720Z,10.33
2023-11-18T12:41:12.824Z,9.92
2023-11-18T12:44:19.088Z,9.53
2023-11-18T12:47:29.661Z,9.39
2023-11-18T12:50:37.167Z,9.42
2023-11-18T12:53:39.784Z,9.49
2023-11-18T12:56:49.489Z,9.32
2023-11-18T12:59:52.155Z,9.25
2023-11-18T13:02:56.028Z,8.93
2023-11-18T13:05:59.250Z,8.97
2023-11-18T13:09:06.894Z,8.92
2023-11-18T13:12:10.371Z,8.63
2023-11-18T13:15:13.752Z,8.58
2023-11-18T13:18:16.371Z,8.82
2023-11-18T13:21:21.587Z,8.70
2023-11-18T13:24:24.264Z,8.47
2023-11-18T13:27:27.163Z,8.50
2023-11-18T13:30:30.196Z,8.24
2023-11-18T13:33:34.560Z,8.24
2023-11-18T13:36:40.170Z,7.95
2023-11-18T13:39:46.640Z,8.22
2023-11-18T13:42:49.466Z,8.18
2023-11-18T13:45:55.618Z,8.18
2023-11-18T13:48:58.787Z,8.11
2023-11-18T13:52:03.066Z,8.03
2023-11-18T13:55:10.162Z,7.90
2023-11-18T13:58:13.048Z,7.79
2023-11-18T14:01:17.297Z,7.74
2023-11-18T14:04:21.177Z,7.64
2023-11-18T14:07:25.463Z,7.66
2023-11-18T14:10:29.126Z,7.61
2023-11-18T14:13:32.468Z,7.44
2023-11-18T14:16:35.636Z,7.50
2023-11-18T14:19:39.085Z,7.50
2023-11-18T14:22:44.042Z,7.40
2023-11-18T14:25:47.054Z,7.31
2023-11-18T14:28:50.026Z,7.27
2023-11-18T14:31:53.688Z,7.26
2023-11-18T14:34:57.773Z,7.05
2023-11-18T14:38:02.144Z,7.02
2023-11-18T14:41:05.990Z,6.99
2023-11-18T14:44:10.672Z,6.81
2023-11-18T14:47:15.142Z,6.71
2023-11-18T14:50:22.036Z,6.71
2023-11-18T14:53:26.145Z,6.80
2023-11-18T14:56:28.885Z,6.70
2023-11-18T14:59:33.565Z,6.67
2023-11-18T15:02:42.064Z,6.57
2023-11-18T15:06:18.759Z,6.58
2023-11-18T15:09:25.656Z,6.58
2023-11-18T15:12:35.905Z,6.38
2023-11-18T15:15:40.125Z,6.26
2023-11-18T15:18:47.047Z,6.32
2023-11-18T15:22:00.333Z,6.27
2023-11-18T15:25:40.719Z,6.21
2023-11-18T15:28:44.928Z,6.14
2023-11-18T15:31:48.062Z,6.16
2023-11-18T15:34:50.857Z,5.86
2023-11-18T15:37:55.596Z,5.79
2023-11-18T15:40:58.540Z,5.78
2023-11-18T15:44:01.875Z,5.76
2023-11-18T15:47:04.978Z,5.70
2023-11-18T15:50:09.413Z,5.67
2023-11-18T15:53:38.109Z,5.72
2023-11-18T15:57:05.333Z,5.70
2023-11-18T16:00:18.840Z,5.59
2023-11-18T16:03:22.836Z,5.58
2023-11-18T16:06:31.054Z,5.43
2023-11-18T16:09:38.709Z,5.43
2023-11-18T16:13:03.609Z,5.43
2023-11-18T16:16:07.417Z,5.35
2023-11-18T16:19:12.375Z,5.41
2023-11-18T16:26:25.913Z,5.88
2023-11-18T16:29:31.933Z,5.44
2023-11-18T16:32:35.246Z,5.44
2023-11-18T16:35:38.584Z,5.40
2023-11-18T16:38:42.676Z,5.26
2023-11-18T16:41:46.474Z,5.28
2023-11-18T16:44:53.064Z,5.20
2023-11-18T16:47:59.176Z,5.25
2023-11-18T16:51:02.784Z,5.14
2023-11-18T16:54:06.551Z,5.09
2023-11-18T16:57:09.532Z,5.04
2023-11-18T17:00:25.588Z,5.03
2023-11-18T17:03:30.839Z,5.05
2023-11-18T17:06:34.215Z,5.02
2023-11-18T17:09:36.791Z,4.89
2023-11-18T17:12:41.049Z,4.83
2023-11-18T17:15:44.053Z,4.87
2023-11-18T17:18:47.221Z,4.87
2023-11-18T17:21:49.933Z,4.81
2023-11-18T17:24:53.068Z,4.79
2023-11-18T17:27:55.671Z,5.15
2023-11-18T17:30:58.758Z,5.04
2023-11-18T17:34:03.818Z,5.44
2023-11-18T17:37:09.295Z,5.02
2023-11-18T17:40:13.312Z,4.85
2023-11-18T17:43:16.632Z,4.72
2023-11-18T17:46:19.333Z,4.64
2023-11-18T17:49:23.389Z,4.66
2023-11-18T17:52:26.045Z,4.63
2023-11-18T17:55:30.124Z,4.64
2023-11-18T17:58:33.458Z,4.51
2023-11-18T18:01:38.975Z,4.66
2023-11-18T18:04:42.041Z,4.63
2023-11-18T18:07:45.168Z,4.68
2023-11-18T18:10:55.829Z,4.55
2023-11-18T18:14:02.429Z,4.50
2023-11-18T18:17:07.384Z,4.40
2023-11-18T18:20:11.217Z,4.45
2023-11-18T18:23:15.056Z,4.29
2023-11-18T18:26:18.119Z,4.33
2023-11-18T18:29:24.160Z,4.27
2023-11-18T18:32:31.005Z,4.28
2023-11-18T18:35:35.016Z,4.25
2023-11-18T18:38:38.383Z,4.19
2023-11-18T18:41:53.464Z,4.18
2023-11-18T18:44:58.127Z,4.06
2023-11-18T18:48:03.466Z,4.10
2023-11-18T18:51:07.278Z,4.13
2023-11-18T18:54:12.478Z,4.07
2023-11-18T18:57:16.833Z,4.04
2023-11-18T19:00:19.894Z,3.99
2023-11-18T19:03:22.706Z,3.96
2023-11-18T19:06:26.487Z,3.93
2023-11-18T19:09:29.095Z,3.88
2023-11-18T19:12:36.549Z,3.74
2023-11-18T19:15:39.745Z,3.84
2023-11-18T19:18:43.066Z,3.82
2023-11-18T19:21:46.504Z,3.78
2023-11-18T19:24:52.067Z,3.79
2023-11-18T19:27:54.718Z,3.72
2023-11-18T19:30:57.798Z,3.60
2023-11-18T19:34:01.017Z,3.86
2023-11-18T19:37:04.353Z,3.94
2023-11-18T19:40:08.115Z,3.68
2023-11-18T19:43:11.584Z,3.70
2023-11-18T19:46:17.599Z,3.58
2023-11-18T19:49:23.028Z,3.60
2023-11-18T19:52:29.925Z,3.62
2023-11-18T19:55:34.018Z,3.55
2023-11-18T19:58:37.193Z,3.59
2023-11-18T20:01:40.503Z,3.55
2023-11-18T20:04:45.663Z,3.46
2023-11-18T20:07:48.408Z,3.44
2023-11-18T20:10:51.546Z,3.43
2023-11-18T20:13:54.614Z,3.51
2023-11-18T20:16:58.231Z,3.45
2023-11-18T20:20:01.449Z,3.40
2023-11-18T20:23:05.650Z,3.46
2023-11-18T20:26:08.712Z,3.37
2023-11-18T20:29:12.829Z,3.58
2023-11-18T20:32:16.263Z,3.39
2023-11-18T20:35:20.393Z,3.35
2023-11-18T20:38:24.424Z,3.28
2023-11-18T20:41:29.771Z,3.28
2023-11-18T20:44:38.515Z,3.21
2023-11-18T20:47:42.234Z,3.21
2023-11-18T20:50:51.955Z,3.21
2023-11-18T20:53:55.406Z,3.18
2023-11-18T20:56:58.150Z,3.22
2023-11-18T21:00:02.088Z,3.21
2023-11-18T21:03:05.421Z,3.26
2023-11-18T21:06:08.728Z,3.14
2023-11-18T21:09:12.247Z,3.15
2023-11-18T21:12:18.441Z,3.14
2023-11-18T21:15:22.720Z,3.25
2023-11-18T21:18:25.934Z,3.08
2023-11-18T21:21:29.234Z,3.10
2023-11-18T21:24:35.748Z,2.99
2023-11-18T21:27:41.516Z,2.92
2023-11-18T21:30:45.105Z,2.94
2023-11-18T21:33:48.181Z,2.91
2023-11-18T21:36:51.556Z,2.89
2023-11-18T21:39:55.271Z,3.07
2023-11-18T21:43:00.389Z,3.09
2023-11-18T21:46:03.209Z,2.94
2023-11-18T21:49:10.900Z,3.03
2023-11-18T21:55:39.324Z,2.96
2023-11-18T21:58:42.954Z,2.94
2023-11-18T22:01:46.419Z,2.98
2023-11-18T22:04:52.613Z,2.85
2023-11-18T22:07:57.398Z,2.78
2023-11-18T22:11:01.969Z,2.79
2023-11-18T22:14:07.484Z,2.71
2023-11-18T22:17:14.244Z,2.73
2023-11-18T22:20:18.291Z,2.81
2023-11-18T22:23:22.175Z,2.74
2023-11-18T22:26:25.598Z,2.67
2023-11-18T22:29:31.681Z,2.48
2023-11-18T22:32:34.788Z,2.50
2023-11-18T22:35:38.859Z,2.58
2023-11-18T22:38:42.609Z,2.55
2023-11-18T22:41:47.375Z,2.48
2023-11-18T22:44:50.602Z,2.52
2023-11-18T22:47:54.454Z,2.62
2023-11-18T22:50:57.569Z,2.48
2023-11-18T22:54:06.090Z,2.36
2023-11-18T22:57:13.596Z,2.31
2023-11-18T23:00:38.673Z,2.62
2023-11-18T23:03:43.681Z,2.46
2023-11-18T23:06:52.287Z,2.43
2023-11-18T23:09:59.133Z,2.43
2023-11-18T23:13:02.738Z,2.40
2023-11-18T23:16:06.238Z,2.27
2023-11-18T23:19:09.399Z,2.25
2023-11-18T23:22:12.334Z,2.30
2023-11-18T23:25:15.349Z,2.47
2023-11-18T23:28:18.432Z,2.40
2023-11-18T23:31:25.937Z,2.41
2023-11-18T23:34:28.664Z,2.30
2023-11-18T23:37:31.678Z,2.27
2023-11-18T23:40:34.542Z,1.98
2023-11-18T23:43:37.655Z,2.10
2023-11-18T23:46:40.480Z,2.13
2023-11-18T23:49:44.418Z,2.17
2023-11-18T23:52:47.093Z,2.01
2023-11-18T23:55:50.232Z,1.99
2023-11-18T23:58:52.947Z,1.97
